Terminal Aerodrome Forecast
Issued by NWS Charleston, WV

Current Version | Previous Version | Graphics & Text | Print | Product List | Glossary On
Versions: 1 2 3 4 5 6 7 8 9 10 11 12 13 14 15 16 17 18 19 20 21 22
000
FTUS41 KRLX 161300 AAA
TAFHTS
TAF AMD
KHTS 161358Z 1614/1712 28004KT 3SM -SHRA BR FEW030 OVC040
      TEMPO 1614/1615 2SM SHRA
     FM162300 14007KT P6SM OVC035
     FM170700 18006KT P6SM BKN020=

USA.gov is the U.S. government's official web portal to all federal, state and local government web resources and services.